Time;durP1;ratioP1;P1;durP2;ratioP2;P2;SDS_P1;SDS_P2;PMS_P1;PMS_P2;Temp;Humidity;BMP_temperature;BMP_pressure;BME280_temperature;BME280_humidity;BME280_pressure;Samples;Min_cycle;Max_cycle;Signal;HPM_P1;HPM_P2
2022/01/12 00:02:38;;;;;;;4.63;4.17;;;2.60;99.90;;;;;;5078532;28;20383;-80
2022/01/12 00:05:23;;;;;;;8.93;4.40;;;2.40;99.90;;;;;;5077939;28;20364;-80
2022/01/12 00:08:08;;;;;;;5.00;4.13;;;2.40;99.90;;;;;;5077948;28;20459;-80
2022/01/12 00:10:52;;;;;;;5.30;4.43;;;2.60;99.90;;;;;;5078155;28;20958;-80
2022/01/12 00:13:37;;;;;;;5.63;4.10;;;2.60;99.90;;;;;;5080857;28;20368;-80
2022/01/12 00:16:22;;;;;;;6.30;4.23;;;2.40;99.90;;;;;;5097250;28;20387;-80
2022/01/12 00:19:06;;;;;;;5.93;4.47;;;2.70;99.90;;;;;;5078414;28;20899;-80
2022/01/12 00:21:51;;;;;;;7.00;4.47;;;2.70;99.90;;;;;;5077751;28;20970;-80
2022/01/12 00:33:33;;;;;;;8.20;4.70;;;2.50;99.90;;;;;;5078306;28;20399;-80
2022/01/12 00:36:18;;;;;;;6.33;3.67;;;2.50;99.90;;;;;;5076757;28;20380;-80
2022/01/12 00:39:06;;;;;;;7.27;6.00;;;2.50;99.90;;;;;;5077832;28;20867;-80
2022/01/12 00:41:51;;;;;;;4.33;3.97;;;2.50;99.90;;;;;;5077142;28;20444;-81
2022/01/12 00:44:36;;;;;;;4.63;4.23;;;2.60;99.90;;;;;;5077198;28;20495;-80
2022/01/12 00:47:20;;;;;;;8.60;5.03;;;2.60;99.90;;;;;;5077459;28;20990;-80
2022/01/12 00:50:06;;;;;;;4.90;3.90;;;2.60;99.90;;;;;;5059270;28;20395;-81
2022/01/12 00:52:50;;;;;;;6.10;4.63;;;2.70;99.90;;;;;;5052848;28;20432;-81
2022/01/12 00:55:36;;;;;;;5.60;4.77;;;2.60;99.90;;;;;;5078331;28;20436;-81
2022/01/12 00:58:20;;;;;;;4.57;3.80;;;2.30;99.90;;;;;;5070914;28;20737;-81
2022/01/12 01:01:05;;;;;;;3.60;2.83;;;2.30;99.90;;;;;;5057167;28;20999;-81
2022/01/12 01:03:50;;;;;;;4.73;3.80;;;2.00;99.90;;;;;;5057106;28;20386;-81
2022/01/12 01:06:36;;;;;;;7.10;3.77;;;2.00;99.90;;;;;;5061103;28;20380;-80
2022/01/12 01:09:22;;;;;;;3.70;3.30;;;2.10;99.90;;;;;;5074814;28;20361;-80
2022/01/12 01:12:07;;;;;;;4.10;3.63;;;2.20;99.90;;;;;;5094820;28;20420;-79
2022/01/12 01:15:04;;;;;;;4.37;3.97;;;2.30;99.90;;;;;;5094724;28;20525;-80
2022/01/12 01:26:46;;;;;;;3.53;3.23;;;1.90;99.90;;;;;;5080138;28;20384;-80
2022/01/12 01:29:30;;;;;;;5.80;4.20;;;1.90;99.90;;;;;;5066054;28;20380;-79
2022/01/12 01:32:15;;;;;;;4.17;3.77;;;2.00;99.90;;;;;;5081415;28;20388;-80
2022/01/12 01:34:59;;;;;;;6.33;4.60;;;2.00;99.90;;;;;;5081305;28;20439;-78
2022/01/12 01:37:44;;;;;;;5.03;4.53;;;2.00;99.90;;;;;;5081316;28;20385;-80
2022/01/12 01:40:30;;;;;;;12.23;6.27;;;1.90;99.90;;;;;;5080331;28;20439;-79
2022/01/12 01:43:25;;;;;;;7.03;5.80;;;1.80;99.90;;;;;;5080359;28;20401;-79
2022/01/12 01:55:10;;;;;;;4.53;3.70;;;1.70;99.90;;;;;;5100189;28;20398;-79
2022/01/12 01:57:55;;;;;;;4.60;4.10;;;1.70;99.90;;;;;;5100791;28;20931;-80
2022/01/12 02:00:41;;;;;;;10.60;4.60;;;1.60;99.90;;;;;;5100512;28;20447;-80
2022/01/12 02:03:27;;;;;;;5.33;4.60;;;1.50;99.90;;;;;;5101792;28;20367;-80
2022/01/12 02:06:12;;;;;;;4.27;3.97;;;1.70;99.90;;;;;;5100796;28;20396;-80
2022/01/12 02:08:56;;;;;;;7.30;5.47;;;1.70;99.90;;;;;;5101383;28;20384;-80
2022/01/12 02:11:41;;;;;;;7.30;5.00;;;1.70;99.90;;;;;;5101287;28;20383;-78
2022/01/12 02:14:25;;;;;;;5.10;4.43;;;1.80;99.90;;;;;;5101644;28;20387;-78
2022/01/12 02:17:17;;;;;;;6.67;4.50;;;1.60;99.90;;;;;;5100738;28;20384;-79
2022/01/12 02:20:27;;;;;;;13.70;4.73;;;1.70;99.90;;;;;;5101796;28;20403;-80
2022/01/12 02:41:31;;;;;;;8.17;4.03;;;1.30;99.90;;;;;;5101850;28;20493;-80
2022/01/12 02:55:59;;;;;;;8.27;5.17;;;1.70;99.90;;;;;;5081491;28;20367;-80
2022/01/12 02:58:45;;;;;;;4.80;4.03;;;1.50;99.90;;;;;;5080808;28;20385;-80
2022/01/12 03:02:04;;;;;;;6.17;5.00;;;1.40;99.90;;;;;;5041018;28;20440;-80
2022/01/12 03:04:37;;;;;;;6.40;4.73;;;1.30;99.90;;;;;;5040479;28;20365;-80
2022/01/12 03:07:22;;;;;;;4.53;4.13;;;1.40;99.90;;;;;;5053399;28;20450;-80
2022/01/12 03:10:10;;;;;;;5.43;3.60;;;1.60;99.90;;;;;;5041993;28;20393;-79
2022/01/12 03:12:55;;;;;;;4.07;3.67;;;1.50;99.90;;;;;;5053073;28;20443;-80
2022/01/12 03:15:41;;;;;;;11.30;4.90;;;1.40;99.90;;;;;;5058548;28;20395;-80
2022/01/12 03:18:26;;;;;;;7.50;5.33;;;1.50;99.90;;;;;;5041473;28;20472;-80
2022/01/12 03:21:12;;;;;;;4.67;3.77;;;1.40;99.90;;;;;;5039752;28;20464;-80
2022/01/12 03:23:57;;;;;;;5.37;4.60;;;1.50;99.90;;;;;;5040140;28;20403;-80
2022/01/12 03:26:42;;;;;;;8.07;5.83;;;1.80;99.90;;;;;;5040230;28;20375;-79
2022/01/12 03:29:26;;;;;;;8.07;4.67;;;1.80;99.90;;;;;;5025617;28;20499;-80
2022/01/12 03:32:12;;;;;;;12.50;5.57;;;1.70;99.90;;;;;;5040697;28;20366;-80
2022/01/12 03:35:07;;;;;;;9.80;4.97;;;1.70;99.90;;;;;;5040706;28;20370;-80
2022/01/12 03:38:19;;;;;;;6.30;5.43;;;1.70;99.90;;;;;;5040501;28;20448;-80
2022/01/12 03:40:56;;;;;;;16.40;6.10;;;1.70;99.90;;;;;;5028569;28;20454;-80
2022/01/12 03:43:41;;;;;;;6.97;4.77;;;1.70;99.90;;;;;;5040362;28;20946;-80
2022/01/12 03:46:32;;;;;;;10.10;5.30;;;1.70;99.90;;;;;;5039871;28;20418;-80
2022/01/12 03:49:18;;;;;;;7.63;5.47;;;1.60;99.90;;;;;;5054529;28;20435;-79
2022/01/12 03:52:03;;;;;;;9.37;5.27;;;1.70;99.90;;;;;;5060201;28;20373;-80
2022/01/12 03:54:47;;;;;;;8.47;5.83;;;1.90;99.90;;;;;;5060725;28;20388;-80
2022/01/12 03:57:32;;;;;;;12.97;6.23;;;2.00;99.90;;;;;;5046051;28;20376;-78
2022/01/12 04:00:16;;;;;;;9.13;5.53;;;1.80;99.90;;;;;;5060638;28;20469;-80
2022/01/12 04:03:03;;;;;;;8.43;5.70;;;1.60;99.90;;;;;;5060513;28;20388;-80
2022/01/12 04:08:42;;;;;;;8.70;5.90;;;1.40;99.90;;;;;;5059502;28;20390;-79
2022/01/12 04:11:27;;;;;;;4.73;4.30;;;1.50;99.90;;;;;;5059482;28;20398;-79
2022/01/12 04:14:12;;;;;;;4.00;3.70;;;1.30;99.90;;;;;;5059264;28;20398;-80
2022/01/12 04:16:57;;;;;;;5.53;4.20;;;1.30;99.90;;;;;;5059294;28;20394;-79
2022/01/12 04:19:42;;;;;;;8.27;5.87;;;1.20;99.90;;;;;;5045604;28;20360;-79
2022/01/12 04:25:28;;;;;;;9.33;4.20;;;1.50;99.90;;;;;;5068096;28;20504;-79
2022/01/12 04:28:14;;;;;;;6.33;3.87;;;1.60;99.90;;;;;;5079247;28;20773;-80
2022/01/12 04:30:59;;;;;;;7.10;5.07;;;1.70;99.90;;;;;;5085055;28;20856;-79
2022/01/12 04:33:45;;;;;;;7.60;5.80;;;1.80;99.90;;;;;;5087261;28;20380;-78
2022/01/12 04:36:30;;;;;;;4.80;4.20;;;1.70;99.90;;;;;;5087042;28;20356;-80
2022/01/12 04:39:14;;;;;;;5.23;4.30;;;1.80;99.90;;;;;;5085204;28;20416;-80
2022/01/12 04:41:59;;;;;;;4.87;4.40;;;1.80;99.90;;;;;;5077558;28;21012;-79
2022/01/12 04:44:46;;;;;;;5.93;4.83;;;1.80;99.90;;;;;;5078364;28;20385;-80
2022/01/12 04:50:35;;;;;;;3.90;3.60;;;1.60;99.90;;;;;;5078390;28;20396;-80
2022/01/12 04:53:21;;;;;;;5.37;3.97;;;1.80;99.90;;;;;;5078449;28;20394;-80
2022/01/12 04:56:05;;;;;;;4.63;3.73;;;1.90;99.90;;;;;;5078640;28;20356;-80
2022/01/12 04:58:50;;;;;;;4.13;3.83;;;2.20;99.90;;;;;;5071334;28;20435;-80
2022/01/12 05:01:47;;;;;;;5.67;4.47;;;2.40;99.90;;;;;;5043729;28;20445;-80
2022/01/12 05:07:43;;;;;;;5.63;3.77;;;2.40;99.90;;;;;;5058359;28;20388;-80
2022/01/12 05:13:19;;;;;;;4.93;3.40;;;2.60;99.90;;;;;;5057850;28;20728;-80
2022/01/12 05:16:04;;;;;;;7.50;4.57;;;2.70;99.90;;;;;;5043428;28;20421;-80
2022/01/12 05:18:50;;;;;;;4.13;3.73;;;2.80;99.90;;;;;;5058756;28;20430;-80
2022/01/12 05:21:35;;;;;;;4.70;3.77;;;2.70;99.90;;;;;;5058756;28;20460;-81
2022/01/12 05:24:19;;;;;;;4.23;3.93;;;2.40;99.90;;;;;;5058381;28;20410;-80
2022/01/12 05:27:04;;;;;;;5.30;4.47;;;2.20;99.90;;;;;;5057796;28;20401;-79
2022/01/12 05:29:49;;;;;;;5.50;3.33;;;1.90;99.90;;;;;;5055214;28;20405;-80
2022/01/12 05:32:34;;;;;;;4.10;3.70;;;1.60;99.90;;;;;;5058247;28;20386;-79
2022/01/12 05:35:20;;;;;;;6.40;4.37;;;1.60;99.90;;;;;;5058499;28;20409;-80
2022/01/12 05:38:08;;;;;;;5.67;5.17;;;1.90;99.90;;;;;;5051987;28;20478;-80
2022/01/12 05:41:00;;;;;;;6.07;4.70;;;1.80;99.90;;;;;;5058450;28;20445;-80
2022/01/12 05:43:46;;;;;;;4.40;4.00;;;1.60;99.90;;;;;;5057545;28;20356;-80
2022/01/12 05:46:31;;;;;;;5.47;4.77;;;1.80;99.90;;;;;;5057796;28;20400;-80
2022/01/12 05:52:19;;;;;;;4.40;4.00;;;1.70;99.90;;;;;;5073405;28;20393;-80
2022/01/12 05:55:05;;;;;;;6.40;4.10;;;1.40;99.90;;;;;;5050793;28;20728;-80
2022/01/12 05:57:51;;;;;;;4.10;3.80;;;1.40;99.90;;;;;;5078468;28;20847;-80
2022/01/12 06:00:35;;;;;;;6.50;4.00;;;1.30;99.90;;;;;;5063083;28;20445;-79
2022/01/12 06:03:20;;;;;;;6.63;4.93;;;1.30;99.90;;;;;;5079353;28;20360;-80
2022/01/12 06:06:04;;;;;;;7.87;5.90;;;1.10;99.90;;;;;;5073111;28;20384;-80
2022/01/12 06:08:49;;;;;;;14.37;5.13;;;1.30;99.90;;;;;;5088190;28;20379;-79
2022/01/12 06:11:34;;;;;;;5.63;4.90;;;1.30;99.90;;;;;;5094818;28;20455;-80
2022/01/12 06:14:20;;;;;;;6.43;4.77;;;1.40;99.90;;;;;;5082163;28;20412;-79
2022/01/12 06:17:05;;;;;;;13.40;5.73;;;1.30;99.90;;;;;;5082354;28;20372;-80
2022/01/12 06:19:52;;;;;;;6.47;5.87;;;1.20;99.90;;;;;;5052982;28;20443;-80
2022/01/12 06:22:37;;;;;;;5.80;4.10;;;1.00;99.90;;;;;;5054717;28;20430;-79
2022/01/12 06:25:21;;;;;;;7.67;4.70;;;1.00;99.90;;;;;;5079988;28;20486;-80
2022/01/12 06:28:23;;;;;;;8.40;6.33;;;1.20;99.90;;;;;;5077630;28;20388;-81
2022/01/12 06:31:10;;;;;;;7.40;6.50;;;1.20;99.90;;;;;;5061667;28;20369;-81
2022/01/12 06:33:56;;;;;;;4.80;4.10;;;1.40;99.90;;;;;;5068247;28;20416;-80
2022/01/12 06:36:40;;;;;;;8.57;6.77;;;1.50;99.90;;;;;;5064078;28;20905;-81
2022/01/12 06:39:26;;;;;;;4.93;4.53;;;1.20;99.90;;;;;;5067742;28;20415;-81
2022/01/12 06:42:10;;;;;;;6.30;4.93;;;1.00;99.90;;;;;;5093830;28;20448;-80
2022/01/12 06:44:55;;;;;;;10.20;5.47;;;1.30;99.90;;;;;;5083089;28;20428;-80
2022/01/12 06:47:40;;;;;;;10.57;5.97;;;1.40;99.90;;;;;;5097522;28;20449;-80
2022/01/12 06:50:25;;;;;;;7.33;6.47;;;1.40;99.90;;;;;;5064679;28;20433;-80
2022/01/12 06:53:09;;;;;;;4.70;4.30;;;1.30;99.90;;;;;;5082692;28;20439;-80
2022/01/12 06:55:54;;;;;;;5.67;4.07;;;1.20;99.90;;;;;;5072087;28;20428;-81
2022/01/12 06:58:38;;;;;;;4.80;4.40;;;1.30;99.90;;;;;;5083199;28;20459;-80
2022/01/12 07:01:23;;;;;;;8.13;4.63;;;1.50;99.90;;;;;;5078360;28;21015;-80
2022/01/12 07:04:07;;;;;;;6.90;5.40;;;1.70;99.90;;;;;;5053192;28;20869;-80
2022/01/12 07:06:52;;;;;;;4.80;4.40;;;2.00;99.90;;;;;;5079574;28;20404;-80
2022/01/12 07:09:37;;;;;;;6.33;4.27;;;2.00;99.90;;;;;;5079884;28;20420;-81
2022/01/12 07:12:21;;;;;;;6.27;4.40;;;2.00;99.90;;;;;;5092665;28;20748;-81
2022/01/12 07:15:07;;;;;;;6.13;5.13;;;2.00;99.90;;;;;;5076968;28;20404;-81
2022/01/12 07:17:52;;;;;;;5.20;4.80;;;2.10;99.90;;;;;;5082398;28;20420;-80
2022/01/12 07:20:37;;;;;;;6.97;5.07;;;2.10;99.90;;;;;;5082114;28;20953;-80
2022/01/12 07:23:23;;;;;;;5.17;3.77;;;1.90;99.90;;;;;;5064113;28;20457;-80
2022/01/12 07:26:08;;;;;;;6.17;4.70;;;1.80;99.90;;;;;;5081220;28;20732;-81
2022/01/12 07:28:53;;;;;;;7.80;4.67;;;1.70;99.90;;;;;;5078845;28;20422;-80
2022/01/12 07:31:38;;;;;;;4.93;4.40;;;1.60;99.90;;;;;;5076073;28;20427;-80
2022/01/12 07:34:23;;;;;;;4.90;4.50;;;1.20;99.90;;;;;;5080314;28;20417;-79
2022/01/12 07:37:07;;;;;;;5.77;4.77;;;1.50;99.90;;;;;;5038908;28;20571;-79
2022/01/12 07:39:53;;;;;;;5.70;4.70;;;1.20;99.90;;;;;;5068879;28;20414;-79
2022/01/12 07:42:38;;;;;;;4.50;4.10;;;1.10;99.90;;;;;;5083690;28;20455;-79
2022/01/12 07:45:22;;;;;;;5.83;3.20;;;1.10;99.90;;;;;;5079953;28;20582;-78
2022/01/12 07:48:07;;;;;;;6.53;5.00;;;1.30;99.90;;;;;;5055567;28;20419;-78
2022/01/12 07:50:55;;;;;;;5.57;4.57;;;1.10;99.90;;;;;;5056343;28;20492;-79
2022/01/12 07:53:41;;;;;;;5.10;3.93;;;1.20;99.90;;;;;;5012601;28;20433;-79
2022/01/12 07:56:25;;;;;;;3.43;3.13;;;1.00;99.90;;;;;;5012685;28;20509;-79
2022/01/12 07:59:10;;;;;;;4.50;3.93;;;1.10;99.90;;;;;;4960312;28;20439;-79
2022/01/12 08:01:55;;;;;;;5.20;4.20;;;1.10;99.90;;;;;;4962312;28;20518;-79
2022/01/12 08:04:41;;;;;;;6.03;4.80;;;0.60;99.90;;;;;;4991124;28;20413;-78
2022/01/12 08:07:28;;;;;;;4.27;3.97;;;0.90;99.90;;;;;;4966492;28;20399;-79
2022/01/12 08:10:12;;;;;;;4.10;3.80;;;0.90;99.90;;;;;;4964526;28;20421;-79
2022/01/12 08:12:57;;;;;;;5.67;4.60;;;1.10;99.90;;;;;;4974947;28;20421;-78
2022/01/12 08:15:41;;;;;;;9.60;3.70;;;1.00;99.90;;;;;;4962578;28;20425;-78
2022/01/12 08:18:26;;;;;;;4.60;4.20;;;1.00;99.90;;;;;;4962616;28;20453;-79
2022/01/12 08:21:10;;;;;;;5.47;3.57;;;0.90;99.90;;;;;;4977473;28;20949;-80
2022/01/12 08:23:55;;;;;;;4.33;3.50;;;1.20;99.90;;;;;;4972064;28;20427;-79
2022/01/12 08:26:40;;;;;;;4.43;4.03;;;0.90;99.90;;;;;;5017058;28;20447;-78
2022/01/12 08:29:28;;;;;;;5.30;4.50;;;1.30;99.90;;;;;;5006303;28;20585;-78
2022/01/12 08:32:14;;;;;;;4.83;4.40;;;1.00;99.90;;;;;;5018011;28;20405;-78
2022/01/12 08:35:00;;;;;;;5.90;4.17;;;1.20;99.90;;;;;;5040659;28;20902;-78
2022/01/12 08:37:45;;;;;;;5.27;4.00;;;1.20;99.90;;;;;;5019601;28;20431;-79
2022/01/12 08:40:31;;;;;;;4.03;3.63;;;1.30;99.90;;;;;;4951933;28;20587;-78
2022/01/12 08:43:16;;;;;;;6.53;5.27;;;1.50;99.90;;;;;;4954824;28;20439;-79
2022/01/12 08:46:04;;;;;;;5.90;4.80;;;1.70;99.90;;;;;;4966590;28;20454;-79
2022/01/12 08:48:49;;;;;;;11.60;4.73;;;1.60;99.90;;;;;;4950229;28;20470;-79
2022/01/12 08:51:34;;;;;;;3.30;3.00;;;1.80;99.90;;;;;;4935305;28;20941;-78
2022/01/12 08:54:19;;;;;;;6.13;4.30;;;1.80;99.90;;;;;;4952016;28;20439;-78
2022/01/12 08:57:05;;;;;;;4.83;3.80;;;1.80;99.90;;;;;;4942515;28;20489;-78
2022/01/12 08:59:51;;;;;;;5.00;4.60;;;1.50;99.90;;;;;;4933881;28;20399;-77
2022/01/12 09:02:36;;;;;;;5.47;4.57;;;1.30;99.90;;;;;;4948031;28;20445;-79
2022/01/12 09:05:21;;;;;;;3.80;3.50;;;1.50;99.90;;;;;;4942983;28;20485;-80
2022/01/12 09:08:06;;;;;;;5.80;4.13;;;1.30;99.90;;;;;;4939576;28;20429;-80
2022/01/12 09:10:51;;;;;;;3.53;3.10;;;1.70;99.90;;;;;;4943510;28;20439;-79
2022/01/12 09:13:36;;;;;;;4.30;3.87;;;1.50;99.90;;;;;;4985358;28;20423;-79
2022/01/12 09:16:21;;;;;;;5.37;4.87;;;1.60;99.90;;;;;;5028247;28;20573;-77
2022/01/12 09:19:06;;;;;;;4.67;4.27;;;1.70;99.90;;;;;;5028487;28;20462;-79
2022/01/12 09:21:51;;;;;;;3.57;3.27;;;1.30;99.90;;;;;;5032732;28;20465;-78
2022/01/12 09:24:36;;;;;;;4.60;4.20;;;1.30;99.90;;;;;;5029240;28;20918;-78
2022/01/12 09:27:20;;;;;;;5.93;4.00;;;1.60;99.90;;;;;;5047802;28;20427;-77
2022/01/12 09:30:08;;;;;;;14.97;4.57;;;1.30;99.90;;;;;;5048582;28;20392;-78
2022/01/12 09:32:53;;;;;;;10.20;4.30;;;1.40;99.90;;;;;;5079638;28;20425;-79
2022/01/12 09:35:37;;;;;;;5.27;3.50;;;1.70;99.90;;;;;;5084882;28;20443;-78
2022/01/12 09:38:23;;;;;;;6.63;6.10;;;1.50;99.90;;;;;;5049051;28;20921;-79
2022/01/12 09:41:07;;;;;;;8.43;4.60;;;1.90;99.90;;;;;;5062629;28;20471;-78
2022/01/12 09:43:53;;;;;;;3.70;3.10;;;1.80;99.90;;;;;;5081584;28;20437;-79
2022/01/12 09:46:37;;;;;;;5.60;4.53;;;2.10;99.90;;;;;;5081289;28;20453;-78
2022/01/12 09:49:22;;;;;;;6.67;4.33;;;1.90;99.90;;;;;;5070544;28;20439;-78
2022/01/12 09:52:06;;;;;;;5.87;4.87;;;1.70;99.90;;;;;;5085112;28;20460;-79
2022/01/12 09:54:51;;;;;;;6.83;5.13;;;2.10;99.90;;;;;;5089698;28;20376;-80
2022/01/12 09:57:36;;;;;;;8.00;5.63;;;2.00;99.90;;;;;;5089631;28;20444;-80
2022/01/12 10:00:24;;;;;;;6.30;4.30;;;2.20;99.90;;;;;;5084977;28;20432;-79
2022/01/12 10:03:11;;;;;;;5.33;4.80;;;2.70;99.90;;;;;;5071747;28;20416;-80
2022/01/12 10:05:56;;;;;;;7.07;4.50;;;2.20;99.90;;;;;;5064852;28;20420;-80
2022/01/12 10:08:41;;;;;;;6.40;5.13;;;2.80;99.90;;;;;;5083755;28;20475;-80
2022/01/12 10:11:26;;;;;;;6.83;5.00;;;3.10;99.90;;;;;;5069662;28;20407;-79
2022/01/12 10:14:10;;;;;;;7.00;4.30;;;3.30;99.90;;;;;;5084899;28;20405;-79
2022/01/12 10:16:58;;;;;;;5.10;4.70;;;3.20;99.90;;;;;;5084445;28;20433;-78
2022/01/12 10:19:43;;;;;;;10.13;5.93;;;3.00;99.90;;;;;;5105052;28;20371;-79
2022/01/12 10:22:28;;;;;;;8.60;6.10;;;3.60;99.90;;;;;;5089203;28;20551;-79
2022/01/12 10:25:17;;;;;;;7.20;5.20;;;4.60;99.90;;;;;;5086969;28;20391;-79
2022/01/12 10:28:23;;;;;;;6.63;4.90;;;4.90;99.90;;;;;;5085561;28;20401;-79
2022/01/12 10:31:07;;;;;;;7.23;4.93;;;4.30;99.90;;;;;;5084355;28;20388;-79
2022/01/12 10:34:03;;;;;;;7.00;3.87;;;4.00;99.90;;;;;;5087283;28;20433;-79
2022/01/12 10:36:48;;;;;;;5.70;4.67;;;3.00;99.90;;;;;;5090035;28;20387;-79
2022/01/12 10:39:33;;;;;;;7.27;6.07;;;3.30;99.90;;;;;;5069601;28;20395;-79
2022/01/12 10:42:20;;;;;;;8.07;5.77;;;3.20;99.90;;;;;;5085866;28;20452;-79
2022/01/12 10:45:06;;;;;;;4.67;4.17;;;3.30;99.90;;;;;;5083465;28;20400;-79
2022/01/12 10:47:59;;;;;;;8.93;5.30;;;3.10;99.90;;;;;;5083583;28;20520;-79
2022/01/12 10:51:00;;;;;;;8.00;5.20;;;3.40;99.90;;;;;;5065490;28;20510;-79
2022/01/12 10:53:44;;;;;;;8.87;4.90;;;3.80;99.90;;;;;;5069824;28;20483;-81
2022/01/12 10:56:30;;;;;;;8.95;6.97;;;3.50;99.90;;;;;;5065209;28;20812;-80
2022/01/12 10:59:20;;;;;;;5.90;5.23;;;3.00;99.90;;;;;;5079829;28;20244;-80
2022/01/12 11:02:05;;;;;;;11.63;5.30;;;3.10;99.90;;;;;;5083008;28;20521;-79
2022/01/12 11:04:50;;;;;;;5.60;4.60;;;3.70;99.90;;;;;;5082016;28;20386;-80
2022/01/12 11:07:35;;;;;;;6.60;5.13;;;3.80;99.90;;;;;;5055099;28;20412;-79
2022/01/12 11:10:21;;;;;;;4.70;4.23;;;3.30;99.90;;;;;;5069803;28;20408;-79
2022/01/12 11:13:06;;;;;;;5.43;4.93;;;4.50;99.90;;;;;;5074169;28;20431;-79
2022/01/12 11:15:51;;;;;;;5.97;5.00;;;5.50;99.90;;;;;;5074140;28;20438;-79
2022/01/12 11:18:38;;;;;;;12.80;6.03;;;6.40;99.90;;;;;;5056611;28;20428;-78
2022/01/12 11:21:41;;;;;;;5.70;5.17;;;6.80;99.90;;;;;;5070471;28;20784;-79
2022/01/12 11:24:28;;;;;;;9.07;5.20;;;7.00;99.90;;;;;;5067621;28;20408;-79
2022/01/12 11:27:21;;;;;;;7.60;6.90;;;7.10;99.90;;;;;;5075255;28;20399;-79
2022/01/12 11:30:18;;;;;;;7.73;5.70;;;7.60;99.90;;;;;;5063178;28;20417;-81
2022/01/12 11:33:07;;;;;;;7.97;6.10;;;8.80;99.90;;;;;;5071024;28;20439;-80
2022/01/12 11:35:52;;;;;;;9.70;6.77;;;11.50;99.90;;;;;;5055132;28;20927;-79
2022/01/12 11:38:37;;;;;;;5.07;4.67;;;13.00;99.90;;;;;;5065790;28;20415;-80
2022/01/12 11:41:24;;;;;;;6.97;6.10;;;14.60;97.70;;;;;;5066173;28;20460;-79
2022/01/12 11:44:12;;;;;;;7.57;6.07;;;13.50;95.90;;;;;;5040066;28;20456;-80
2022/01/12 11:46:59;;;;;;;7.60;6.30;;;14.80;95.00;;;;;;5070838;28;20428;-80
2022/01/12 11:49:47;;;;;;;10.07;7.33;;;13.80;89.70;;;;;;5051831;28;20780;-79
2022/01/12 11:52:31;;;;;;;11.43;6.83;;;11.30;92.00;;;;;;5060922;28;20439;-80
2022/01/12 11:55:21;;;;;;;9.97;8.03;;;11.60;94.80;;;;;;5082022;28;20475;-78
2022/01/12 11:58:16;;;;;;;10.40;6.70;;;11.50;96.60;;;;;;5057497;28;20456;-79
2022/01/12 12:01:13;;;;;;;7.20;5.20;;;13.00;95.90;;;;;;5080148;28;20496;-78
2022/01/12 12:04:00;;;;;;;8.00;6.70;;;10.90;96.80;;;;;;5097306;28;20473;-78
2022/01/12 12:06:53;;;;;;;8.07;7.10;;;11.90;95.50;;;;;;5034687;28;20478;-79
2022/01/12 12:09:44;;;;;;;7.77;6.10;;;11.10;95.30;;;;;;5042354;28;20993;-79
2022/01/12 12:12:33;;;;;;;10.90;7.07;;;12.60;97.00;;;;;;5029100;28;20466;-78
2022/01/12 12:15:19;;;;;;;8.97;7.27;;;11.80;94.30;;;;;;5028729;28;20534;-79
2022/01/12 12:18:04;;;;;;;7.30;6.47;;;10.30;95.40;;;;;;5018952;28;20461;-79
2022/01/12 12:20:49;;;;;;;9.17;7.37;;;10.90;96.60;;;;;;5044371;28;20454;-78
2022/01/12 12:23:33;;;;;;;7.00;6.30;;;12.50;96.60;;;;;;5028779;28;20450;-78
2022/01/12 12:26:20;;;;;;;8.83;7.50;;;10.60;97.70;;;;;;5029588;28;20459;-79
2022/01/12 12:29:05;;;;;;;7.07;5.87;;;9.40;96.70;;;;;;5023751;28;20896;-79
2022/01/12 12:31:49;;;;;;;10.60;7.63;;;8.00;99.90;;;;;;5025923;28;20419;-79
2022/01/12 12:34:35;;;;;;;10.67;6.63;;;8.10;99.90;;;;;;5015022;28;20412;-79
2022/01/12 12:37:20;;;;;;;8.60;5.93;;;7.80;99.90;;;;;;5041773;28;20502;-80
2022/01/12 12:40:16;;;;;;;14.63;6.90;;;7.30;99.90;;;;;;5054919;28;20996;-80
2022/01/12 12:43:06;;;;;;;7.77;6.90;;;6.10;99.90;;;;;;5058937;28;20449;-79
2022/01/12 12:45:56;;;;;;;7.13;6.33;;;6.50;99.90;;;;;;5047088;28;20467;-79
2022/01/12 12:48:41;;;;;;;8.27;6.20;;;6.70;99.90;;;;;;5045957;28;20457;-79
2022/01/12 12:51:26;;;;;;;10.40;6.57;;;5.80;99.90;;;;;;5039426;28;20437;-79
2022/01/12 12:54:13;;;;;;;6.90;6.20;;;6.50;99.90;;;;;;5054923;28;20404;-76
2022/01/12 12:57:09;;;;;;;7.63;6.33;;;6.20;99.90;;;;;;5026838;28;21004;-79
2022/01/12 13:00:07;;;;;;;6.97;5.33;;;5.80;99.90;;;;;;4999644;28;20473;-78
2022/01/12 13:02:54;;;;;;;8.03;7.23;;;5.20;99.90;;;;;;5048743;28;20477;-79
2022/01/12 13:05:41;;;;;;;5.87;5.27;;;5.40;99.90;;;;;;5026205;28;20425;-78
2022/01/12 13:08:25;;;;;;;6.00;4.80;;;5.60;99.90;;;;;;5038906;28;20412;-79
2022/01/12 13:11:10;;;;;;;9.30;5.70;;;5.40;99.90;;;;;;5059766;28;20426;-79
2022/01/12 13:13:56;;;;;;;9.43;6.17;;;4.80;99.90;;;;;;5062378;28;20485;-79
2022/01/12 13:16:50;;;;;;;5.27;4.77;;;4.50;99.90;;;;;;5049805;28;20476;-78
2022/01/12 13:22:36;;;;;;;6.07;5.53;;;5.20;99.90;;;;;;5047590;28;20531;-78
2022/01/12 13:25:21;;;;;;;6.67;5.03;;;5.80;99.90;;;;;;5046860;28;20432;-80
2022/01/12 13:28:06;;;;;;;6.20;5.60;;;6.10;99.90;;;;;;5067186;28;20476;-78
2022/01/12 13:30:57;;;;;;;6.10;5.27;;;5.50;99.90;;;;;;5061089;28;20475;-79
2022/01/12 13:33:43;;;;;;;9.20;5.90;;;5.30;99.90;;;;;;5083598;28;20419;-79
2022/01/12 13:36:32;;;;;;;6.90;4.53;;;5.30;99.90;;;;;;5073528;28;20418;-78
2022/01/12 13:39:19;;;;;;;5.63;4.87;;;5.00;99.90;;;;;;5057355;28;20841;-78
2022/01/12 13:42:04;;;;;;;7.97;6.60;;;5.70;99.90;;;;;;5079576;28;20444;-79
2022/01/12 13:45:04;;;;;;;6.93;6.23;;;4.80;99.90;;;;;;5083438;28;20447;-79
2022/01/12 13:47:56;;;;;;;7.27;6.57;;;5.20;99.90;;;;;;5067337;28;20533;-79
2022/01/12 13:50:45;;;;;;;7.37;5.87;;;5.70;99.90;;;;;;5083363;28;20472;-79
2022/01/12 13:53:40;;;;;;;10.60;5.57;;;6.20;99.90;;;;;;5087459;28;20473;-79
2022/01/12 13:56:34;;;;;;;6.40;5.80;;;6.40;99.90;;;;;;5082188;28;20445;-79
2022/01/12 13:59:20;;;;;;;7.47;6.77;;;5.40;99.90;;;;;;5076295;28;20436;-78
2022/01/12 14:02:13;;;;;;;8.13;6.50;;;5.60;99.90;;;;;;5084645;28;20459;-79
2022/01/12 14:05:07;;;;;;;6.93;5.90;;;5.20;99.90;;;;;;5083530;28;20486;-79
2022/01/12 14:08:04;;;;;;;8.23;5.40;;;5.40;99.90;;;;;;5081687;28;20422;-78
2022/01/12 14:10:53;;;;;;;9.00;8.10;;;4.80;99.90;;;;;;5071852;28;20421;-78
2022/01/12 14:13:59;;;;;;;6.87;5.10;;;4.70;99.90;;;;;;5089341;28;20376;-78
2022/01/12 14:16:44;;;;;;;6.77;5.70;;;4.40;99.90;;;;;;4998675;28;20955;-79
2022/01/12 14:19:28;;;;;;;6.57;5.30;;;4.30;99.90;;;;;;4966422;28;20409;-79
2022/01/12 14:22:13;;;;;;;7.43;6.07;;;4.70;99.90;;;;;;4994512;28;20453;-78
2022/01/12 14:25:00;;;;;;;12.47;7.43;;;4.40;99.90;;;;;;4979215;28;20419;-79
2022/01/12 14:27:47;;;;;;;7.63;5.67;;;4.20;99.90;;;;;;4995240;28;20500;-78
2022/01/12 14:30:32;;;;;;;8.17;6.20;;;4.30;99.90;;;;;;4954034;28;20446;-78
2022/01/12 14:33:17;;;;;;;6.30;5.80;;;4.30;99.90;;;;;;4964825;29;21422;-79
2022/01/12 14:36:01;;;;;;;5.47;4.97;;;4.50;99.90;;;;;;4935512;29;20503;-79
2022/01/12 14:38:46;;;;;;;6.53;5.37;;;5.00;99.90;;;;;;4912495;29;20427;-79
2022/01/12 14:41:31;;;;;;;6.90;5.70;;;5.30;99.90;;;;;;4889059;29;20507;-79
2022/01/12 14:44:16;;;;;;;7.40;6.43;;;4.80;99.90;;;;;;4880068;29;20447;-79
2022/01/12 14:47:03;;;;;;;7.00;6.30;;;4.60;99.90;;;;;;4877269;29;20449;-78
2022/01/12 14:49:47;;;;;;;6.60;5.93;;;4.60;99.90;;;;;;4836135;29;20259;-79
2022/01/12 14:52:33;;;;;;;8.83;8.03;;;4.10;99.90;;;;;;4848287;29;20438;-79
2022/01/12 14:55:19;;;;;;;6.47;5.90;;;4.50;99.90;;;;;;4822718;29;20487;-79
2022/01/12 14:58:05;;;;;;;9.17;5.27;;;4.10;99.90;;;;;;4847849;29;20413;-79
2022/01/12 15:00:51;;;;;;;9.13;5.97;;;4.10;99.90;;;;;;4836508;29;20529;-79
2022/01/12 15:03:36;;;;;;;9.87;5.40;;;4.30;99.90;;;;;;4846534;29;20476;-79
2022/01/12 15:06:20;;;;;;;8.70;7.40;;;4.30;99.90;;;;;;4859262;29;20506;-79
2022/01/12 15:09:05;;;;;;;7.07;5.50;;;4.30;99.90;;;;;;4906601;29;20435;-79
2022/01/12 15:11:51;;;;;;;9.43;5.73;;;4.00;99.90;;;;;;4952844;28;20392;-79
2022/01/12 15:14:46;;;;;;;7.70;6.90;;;3.80;99.90;;;;;;4957179;28;20426;-80
2022/01/12 15:17:31;;;;;;;6.40;4.53;;;4.10;99.90;;;;;;4988830;28;20476;-79
2022/01/12 15:20:19;;;;;;;5.33;4.77;;;4.30;99.90;;;;;;5011406;28;20844;-79
2022/01/12 15:23:04;;;;;;;7.63;6.47;;;4.10;99.90;;;;;;5038957;28;20456;-79
2022/01/12 15:25:51;;;;;;;8.10;5.10;;;3.90;99.90;;;;;;5049848;28;20476;-78
2022/01/12 15:28:37;;;;;;;7.60;4.73;;;4.30;99.90;;;;;;4992788;28;20482;-79
2022/01/12 15:31:22;;;;;;;9.50;6.87;;;4.40;99.90;;;;;;5015757;28;20414;-80
2022/01/12 15:34:07;;;;;;;9.23;6.63;;;4.10;99.90;;;;;;4975189;28;20478;-80
2022/01/12 15:36:51;;;;;;;8.87;5.60;;;4.10;99.90;;;;;;4926842;29;20936;-79
2022/01/12 15:39:36;;;;;;;6.93;5.87;;;4.40;99.90;;;;;;4951077;29;20444;-79
2022/01/12 15:42:23;;;;;;;6.73;6.13;;;4.50;99.90;;;;;;4946752;29;20472;-79
2022/01/12 15:45:09;;;;;;;12.77;6.37;;;4.20;99.90;;;;;;4922411;29;20393;-80
2022/01/12 15:47:53;;;;;;;10.63;6.80;;;4.20;99.90;;;;;;4936341;29;20463;-79
2022/01/12 15:50:38;;;;;;;10.37;6.97;;;3.90;99.90;;;;;;4903226;29;20537;-80
2022/01/12 15:53:23;;;;;;;11.93;7.97;;;3.90;99.90;;;;;;4903454;29;20416;-80
2022/01/12 15:56:09;;;;;;;13.97;8.67;;;3.80;99.90;;;;;;4918265;29;20752;-80